Terminal Aerodrome Forecast
Issued by NWS

Home | Current Version | Previous Version | Text Only | Print | Product List | Glossary On
Versions: 1 2 3 4 5 6 7 8 9 10 11 12 13 14 15 16 17
000
FTUS45 KABQ 210500
TAFROW
TAF
KROW 210534Z 2106/2206 VRB06KT P6SM VCSH BKN040 OVC070
     FM211000 VRB06KT P6SM OVC025
     FM211500 17006KT P6SM BKN025 BKN060=

USA.gov is the U.S. government's official web portal to all federal, state and local government web resources and services.